Time;durP1;ratioP1;P1;durP2;ratioP2;P2;SDS_P1;SDS_P2;PMS_P1;PMS_P2;Temp;Humidity;BMP_temperature;BMP_pressure;BME280_temperature;BME280_humidity;BME280_pressure;Samples;Min_cycle;Max_cycle;Signal;HPM_P1;HPM_P2
2021/04/19 00:00:54;;;;;;;3.13;1.92;;;;;14.00;102004.00;;;;5086835;28;20197;-77
2021/04/19 00:03:21;;;;;;;3.92;1.83;;;;;14.00;102003.00;;;;5087511;28;20202;-77
2021/04/19 00:05:48;;;;;;;3.92;2.13;;;;;13.90;102004.00;;;;5087499;28;20236;-77
2021/04/19 00:08:14;;;;;;;3.22;1.73;;;;;13.90;102000.00;;;;5088903;28;20331;-77
2021/04/19 00:10:41;;;;;;;3.10;2.00;;;;;13.90;102004.00;;;;5089256;28;20280;-77
2021/04/19 00:13:08;;;;;;;4.72;2.80;;;;;13.80;102004.00;;;;5088618;28;20922;-77
2021/04/19 00:15:36;;;;;;;3.40;2.33;;;;;13.80;102001.00;;;;5089796;28;20225;-77
2021/04/19 00:18:03;;;;;;;2.92;1.60;;;;;13.80;102009.00;;;;5085274;28;20206;-77
2021/04/19 00:20:30;;;;;;;2.28;1.67;;;;;13.80;101994.00;;;;5076299;28;20199;-77
2021/04/19 00:22:57;;;;;;;4.43;2.17;;;;;13.80;101998.00;;;;5069116;28;20203;-77
2021/04/19 00:25:24;;;;;;;4.15;1.88;;;;;13.70;101998.00;;;;5084413;28;20201;-77
2021/04/19 00:27:51;;;;;;;2.92;1.80;;;;;13.70;101999.00;;;;5088475;28;20198;-77
2021/04/19 00:30:20;;;;;;;3.72;2.20;;;;;13.70;101998.00;;;;5089627;28;20672;-77
2021/04/19 00:32:48;;;;;;;3.55;2.05;;;;;13.70;101997.00;;;;5088078;28;20206;-77
2021/04/19 00:35:16;;;;;;;5.07;1.95;;;;;13.70;101992.00;;;;5087290;28;20206;-77
2021/04/19 00:37:42;;;;;;;2.92;1.90;;;;;13.60;101996.00;;;;5084457;28;20235;-78
2021/04/19 00:40:13;;;;;;;3.05;2.03;;;;;13.60;102000.00;;;;5084687;28;20201;-77
2021/04/19 00:42:40;;;;;;;4.28;2.10;;;;;13.60;101989.00;;;;5087084;28;20206;-77
2021/04/19 00:45:09;;;;;;;4.35;2.47;;;;;13.60;101993.00;;;;5086163;28;20202;-77
2021/04/19 00:47:37;;;;;;;3.28;2.15;;;;;13.60;101993.00;;;;5077599;28;20735;-77
2021/04/19 00:50:06;;;;;;;4.00;2.75;;;;;13.50;101987.00;;;;5074060;28;20634;-77
2021/04/19 00:52:34;;;;;;;5.55;2.47;;;;;13.50;101984.00;;;;5066924;28;20669;-77
2021/04/19 00:55:01;;;;;;;3.00;2.28;;;;;13.50;101981.00;;;;5066842;28;20272;-77
2021/04/19 00:57:30;;;;;;;2.97;2.42;;;;;13.40;101985.00;;;;5085873;28;20202;-77
2021/04/19 00:59:57;;;;;;;3.42;1.92;;;;;13.40;101987.00;;;;5088210;28;20704;-77
2021/04/19 01:02:24;;;;;;;6.07;2.53;;;;;13.40;101983.00;;;;5088636;28;20245;-77
2021/04/19 01:04:51;;;;;;;4.03;2.78;;;;;13.30;101982.00;;;;5087899;28;20199;-77
2021/04/19 01:07:19;;;;;;;3.67;2.70;;;;;13.30;101979.00;;;;5088011;28;20256;-77
2021/04/19 01:09:46;;;;;;;4.53;2.33;;;;;13.30;101978.00;;;;5087098;28;20206;-77
2021/04/19 01:12:13;;;;;;;3.78;2.22;;;;;13.20;101971.00;;;;5088489;28;20209;-77
2021/04/19 01:14:40;;;;;;;4.43;2.40;;;;;13.20;101967.00;;;;5086164;28;20198;-77
2021/04/19 01:17:07;;;;;;;7.45;3.28;;;;;13.20;101961.00;;;;5074478;28;20513;-77
2021/04/19 01:19:33;;;;;;;4.22;2.42;;;;;13.10;101968.00;;;;5066856;28;20661;-77
2021/04/19 01:22:02;;;;;;;4.55;2.72;;;;;13.10;101960.00;;;;5065352;28;20212;-77
2021/04/19 01:24:29;;;;;;;4.25;2.65;;;;;13.10;101960.00;;;;5084113;28;20198;-77
2021/04/19 01:26:56;;;;;;;6.20;3.10;;;;;13.10;101955.00;;;;5085546;28;20198;-77
2021/04/19 01:29:23;;;;;;;4.63;2.30;;;;;13.00;101960.00;;;;5087488;28;20194;-77
2021/04/19 01:31:49;;;;;;;3.92;2.25;;;;;13.00;101959.00;;;;5087483;28;20194;-77
2021/04/19 01:34:16;;;;;;;4.80;2.58;;;;;13.00;101949.00;;;;5087722;28;20220;-77
2021/04/19 01:36:46;;;;;;;5.13;2.55;;;;;13.00;101949.00;;;;5087035;28;20271;-77
2021/04/19 01:39:16;;;;;;;4.70;3.00;;;;;12.90;101945.00;;;;5067923;28;20202;-77
2021/04/19 01:41:44;;;;;;;7.32;2.95;;;;;12.90;101948.00;;;;5088176;28;20262;-77
2021/04/19 01:44:11;;;;;;;4.25;2.53;;;;;12.90;101954.00;;;;5082714;28;20199;-77
2021/04/19 01:46:38;;;;;;;5.85;3.20;;;;;12.90;101945.00;;;;5080680;28;20190;-77
2021/04/19 01:49:13;;;;;;;7.78;3.22;;;;;12.80;101943.00;;;;5088088;28;20530;-77
2021/04/19 01:51:39;;;;;;;5.45;3.25;;;;;12.80;101950.00;;;;5087834;28;20228;-77
2021/04/19 01:54:06;;;;;;;6.10;2.90;;;;;12.80;101950.00;;;;5087523;28;20224;-78
2021/04/19 01:56:34;;;;;;;4.13;2.70;;;;;12.80;101941.00;;;;5087382;28;20222;-77
2021/04/19 01:59:04;;;;;;;6.57;3.47;;;;;12.80;101939.00;;;;5087634;28;20237;-77
2021/04/19 02:01:31;;;;;;;4.70;3.25;;;;;12.80;101934.00;;;;5088390;28;20205;-77
2021/04/19 02:04:10;;;;;;;5.35;3.28;;;;;12.70;101933.00;;;;5087088;28;20505;-77
2021/04/19 02:06:42;;;;;;;4.60;3.10;;;;;12.70;101929.00;;;;5087204;28;20213;-77
2021/04/19 02:09:16;;;;;;;4.07;2.90;;;;;12.70;101927.00;;;;5081549;28;20201;-77
2021/04/19 02:11:57;;;;;;;5.10;2.80;;;;;12.60;101928.00;;;;5067276;28;20199;-77
2021/04/19 02:14:35;;;;;;;5.25;2.90;;;;;12.60;101916.00;;;;5077605;28;20207;-77
2021/04/19 02:17:09;;;;;;;4.80;2.85;;;;;12.60;101916.00;;;;5084846;28;20256;-77
2021/04/19 02:19:41;;;;;;;7.03;2.90;;;;;12.50;101909.00;;;;5090916;28;20209;-78
2021/04/19 02:22:13;;;;;;;5.80;3.15;;;;;12.50;101917.00;;;;5091086;28;20228;-77
2021/04/19 02:24:44;;;;;;;5.80;3.40;;;;;12.50;101911.00;;;;5091260;28;20264;-78
2021/04/19 02:27:18;;;;;;;3.78;2.67;;;;;12.40;101910.00;;;;5091029;28;20256;-77
2021/04/19 02:29:48;;;;;;;5.60;3.25;;;;;12.40;101916.00;;;;5091437;28;20664;-77
2021/04/19 02:32:19;;;;;;;5.38;3.17;;;;;12.40;101908.00;;;;5091249;28;20206;-78
2021/04/19 02:34:50;;;;;;;4.95;3.33;;;;;12.40;101923.00;;;;5091450;28;20660;-77
2021/04/19 02:37:18;;;;;;;6.55;3.83;;;;;12.30;101917.00;;;;5090954;28;20222;-77
2021/04/19 02:39:48;;;;;;;7.13;3.25;;;;;12.30;101916.00;;;;5091403;28;20218;-77
2021/04/19 02:42:16;;;;;;;6.35;3.08;;;;;12.30;101915.00;;;;5090624;28;20579;-78
2021/04/19 02:44:47;;;;;;;4.78;3.15;;;;;12.30;101913.00;;;;5080808;28;20198;-77
2021/04/19 02:47:15;;;;;;;4.40;3.13;;;;;12.30;101906.00;;;;5083689;28;20195;-77
2021/04/19 02:49:42;;;;;;;5.78;3.00;;;;;12.30;101916.00;;;;5089448;28;20202;-77
2021/04/19 02:52:11;;;;;;;7.45;3.45;;;;;12.20;101917.00;;;;5090158;28;20564;-77
2021/04/19 02:54:40;;;;;;;4.25;2.80;;;;;12.20;101927.00;;;;5090410;28;20202;-77
2021/04/19 02:57:23;;;;;;;5.47;3.47;;;;;12.20;101925.00;;;;5090280;28;20229;-77
2021/04/19 02:59:52;;;;;;;5.15;2.83;;;;;12.20;101919.00;;;;5089963;28;20214;-77
2021/04/19 03:02:21;;;;;;;3.97;3.03;;;;;12.20;101925.00;;;;5090392;28;20197;-77
2021/04/19 03:04:48;;;;;;;5.35;3.25;;;;;12.20;101929.00;;;;5089881;28;20598;-77
2021/04/19 03:07:16;;;;;;;5.53;3.40;;;;;12.10;101932.00;;;;5089324;28;20202;-77
2021/04/19 03:09:47;;;;;;;5.63;3.28;;;;;12.10;101935.00;;;;5090216;28;20204;-77
2021/04/19 03:12:17;;;;;;;6.63;3.42;;;;;12.10;101920.00;;;;5090555;28;20262;-77
2021/04/19 03:14:49;;;;;;;5.85;3.50;;;;;12.10;101923.00;;;;5083504;28;20187;-77
2021/04/19 03:17:21;;;;;;;6.32;3.65;;;;;12.00;101925.00;;;;5089568;28;20230;-77
2021/04/19 03:19:52;;;;;;;6.70;3.38;;;;;12.00;101931.00;;;;5069442;28;20641;-77
2021/04/19 03:22:20;;;;;;;8.27;4.35;;;;;12.00;101922.00;;;;5077989;28;20213;-77
2021/04/19 03:24:48;;;;;;;5.63;3.88;;;;;12.00;101922.00;;;;5089877;28;20217;-77
2021/04/19 03:27:17;;;;;;;6.22;3.92;;;;;11.90;101916.00;;;;5089081;28;20194;-77
2021/04/19 03:29:44;;;;;;;6.50;4.20;;;;;11.90;101917.00;;;;5088514;28;20194;-77
2021/04/19 03:32:17;;;;;;;4.75;3.47;;;;;11.90;101915.00;;;;5089655;28;20198;-77
2021/04/19 03:34:45;;;;;;;5.95;4.18;;;;;11.90;101908.00;;;;5090163;28;20240;-77
2021/04/19 03:37:17;;;;;;;7.68;3.47;;;;;11.80;101915.00;;;;5089358;28;20289;-77
2021/04/19 03:39:48;;;;;;;6.60;3.60;;;;;11.80;101913.00;;;;5090554;28;20198;-77
2021/04/19 03:42:17;;;;;;;4.63;3.13;;;;;11.80;101918.00;;;;5090134;28;20574;-77
2021/04/19 03:44:46;;;;;;;5.38;3.90;;;;;11.80;101902.00;;;;5078237;28;20660;-77
2021/04/19 03:47:14;;;;;;;11.13;5.07;;;;;11.80;101909.00;;;;5086649;28;20195;-77
2021/04/19 03:49:45;;;;;;;6.82;4.25;;;;;11.70;101919.00;;;;5090394;28;20202;-77
2021/04/19 03:52:16;;;;;;;10.95;4.43;;;;;11.70;101908.00;;;;5090070;28;20205;-77
2021/04/19 03:54:47;;;;;;;6.82;4.35;;;;;11.70;101911.00;;;;5088830;28;20209;-77
2021/04/19 03:57:20;;;;;;;5.90;3.67;;;;;11.70;101906.00;;;;5088832;28;20225;-77
2021/04/19 03:59:50;;;;;;;7.07;4.20;;;;;11.70;101908.00;;;;5089177;28;20222;-77
2021/04/19 04:02:18;;;;;;;5.13;3.90;;;;;11.70;101901.00;;;;5089402;28;20294;-77
2021/04/19 04:04:46;;;;;;;6.60;3.90;;;;;11.60;101905.00;;;;5089591;28;20233;-77
2021/04/19 04:07:14;;;;;;;6.78;4.18;;;;;11.60;101901.00;;;;5088289;28;20287;-77
2021/04/19 04:09:42;;;;;;;8.25;4.78;;;;;11.60;101899.00;;;;5088600;28;20218;-77
2021/04/19 04:12:10;;;;;;;8.88;4.60;;;;;11.60;101905.00;;;;5088584;28;20754;-77
2021/04/19 04:14:47;;;;;;;7.15;3.55;;;;;11.60;101908.00;;;;5077651;28;20684;-77
2021/04/19 04:17:15;;;;;;;5.95;3.72;;;;;11.60;101903.00;;;;5078558;28;20229;-77
2021/04/19 04:19:42;;;;;;;5.90;3.85;;;;;11.60;101906.00;;;;5088750;28;20198;-78
2021/04/19 04:22:09;;;;;;;6.18;3.58;;;;;11.60;101910.00;;;;5087864;28;20194;-77
2021/04/19 04:24:37;;;;;;;6.93;4.47;;;;;11.60;101914.00;;;;5089011;28;20221;-77
2021/04/19 04:27:04;;;;;;;9.35;4.40;;;;;11.60;101914.00;;;;5088255;28;20198;-77
2021/04/19 04:29:31;;;;;;;6.63;4.03;;;;;11.60;101905.00;;;;5088789;28;20214;-77
2021/04/19 04:31:59;;;;;;;6.85;4.05;;;;;11.50;101914.00;;;;5088325;28;20228;-77
2021/04/19 04:34:26;;;;;;;7.88;4.85;;;;;11.50;101910.00;;;;5088548;28;20644;-78
2021/04/19 04:36:52;;;;;;;8.38;4.35;;;;;11.50;101904.00;;;;5087382;28;20221;-78
2021/04/19 04:39:19;;;;;;;7.60;4.00;;;;;11.50;101906.00;;;;5088311;28;20197;-78
2021/04/19 04:41:46;;;;;;;6.60;4.55;;;;;11.50;101897.00;;;;5088146;28;20244;-77
2021/04/19 04:44:16;;;;;;;6.43;3.85;;;;;11.40;101902.00;;;;5078020;28;20200;-77
2021/04/19 04:46:49;;;;;;;6.80;4.13;;;;;11.50;101898.00;;;;5071873;28;20205;-77
2021/04/19 04:49:23;;;;;;;8.18;4.28;;;;;11.40;101898.00;;;;5089637;28;20202;-77
2021/04/19 04:51:53;;;;;;;6.32;4.03;;;;;11.50;101896.00;;;;5086839;28;20253;-77
2021/04/19 04:54:23;;;;;;;7.55;4.25;;;;;11.40;101896.00;;;;5087836;28;20205;-77
2021/04/19 04:56:52;;;;;;;14.23;4.78;;;;;11.50;101894.00;;;;5088358;28;20222;-77
2021/04/19 04:59:20;;;;;;;8.73;4.13;;;;;11.50;101889.00;;;;5087727;28;20214;-77
2021/04/19 05:01:48;;;;;;;6.45;3.70;;;;;11.50;101904.00;;;;5086154;28;20554;-77
2021/04/19 05:04:16;;;;;;;6.28;3.63;;;;;11.50;101891.00;;;;5087408;28;20202;-77
2021/04/19 05:06:44;;;;;;;6.20;3.55;;;;;11.50;101898.00;;;;5087763;28;20251;-77
2021/04/19 05:09:11;;;;;;;20.33;4.55;;;;;11.50;101899.00;;;;5083516;28;20197;-77
2021/04/19 05:11:39;;;;;;;7.03;3.88;;;;;11.50;101894.00;;;;5086484;28;20206;-77
2021/04/19 05:14:06;;;;;;;7.72;4.43;;;;;11.50;101890.00;;;;5085721;28;20252;-78
2021/04/19 05:16:33;;;;;;;9.05;4.18;;;;;11.50;101886.00;;;;5071928;28;20219;-77
2021/04/19 05:19:01;;;;;;;5.47;3.72;;;;;11.50;101897.00;;;;5083200;28;20209;-78
2021/04/19 05:21:29;;;;;;;6.30;3.92;;;;;11.50;101896.00;;;;5088720;28;20206;-77
2021/04/19 05:23:56;;;;;;;7.70;4.28;;;;;11.50;101893.00;;;;5087938;28;20206;-77
2021/04/19 05:26:23;;;;;;;5.78;4.07;;;;;11.50;101892.00;;;;5088160;28;20205;-77
2021/04/19 05:28:52;;;;;;;5.88;4.00;;;;;11.50;101890.00;;;;5088169;28;20194;-77
2021/04/19 05:31:19;;;;;;;5.80;4.15;;;;;11.50;101891.00;;;;5088152;28;20733;-77
2021/04/19 05:33:46;;;;;;;7.15;4.63;;;;;11.50;101895.00;;;;5078846;28;20214;-77
2021/04/19 05:36:15;;;;;;;7.68;3.83;;;;;11.60;101899.00;;;;5086914;28;20267;-77
2021/04/19 05:38:44;;;;;;;8.75;4.45;;;;;11.60;101886.00;;;;5085589;28;20211;-77
2021/04/19 05:41:11;;;;;;;8.90;4.15;;;;;11.60;101895.00;;;;5083555;28;20194;-77
2021/04/19 05:43:40;;;;;;;6.18;4.13;;;;;11.70;101894.00;;;;5081392;28;20198;-77
2021/04/19 05:46:08;;;;;;;6.72;4.13;;;;;11.70;101901.00;;;;5086231;28;20194;-78
2021/04/19 05:48:35;;;;;;;6.50;3.83;;;;;11.80;101899.00;;;;5086475;28;20699;-77
2021/04/19 05:51:08;;;;;;;6.22;4.28;;;;;11.80;101906.00;;;;5087381;28;20226;-78
2021/04/19 05:53:35;;;;;;;6.20;4.00;;;;;11.90;101907.00;;;;5087661;28;20201;-79
2021/04/19 05:56:11;;;;;;;7.00;4.40;;;;;11.90;101905.00;;;;5086427;28;20218;-79
2021/04/19 05:58:47;;;;;;;6.38;4.35;;;;;12.00;101906.00;;;;5087240;28;20198;-78
2021/04/19 06:01:19;;;;;;;7.18;4.63;;;;;12.00;101917.00;;;;5087138;28;20194;-76
2021/04/19 06:03:53;;;;;;;9.00;4.90;;;;;12.10;101907.00;;;;5086522;28;20191;-78
2021/04/19 06:06:29;;;;;;;7.60;4.03;;;;;12.10;101918.00;;;;5090410;28;20186;-78
2021/04/19 06:09:03;;;;;;;5.78;4.05;;;;;12.20;101919.00;;;;5090725;28;20355;-79
2021/04/19 06:11:37;;;;;;;7.03;4.10;;;;;12.20;101914.00;;;;5091607;28;20205;-79
2021/04/19 06:14:05;;;;;;;10.48;5.35;;;;;12.30;101917.00;;;;5091636;28;20208;-79
2021/04/19 06:16:38;;;;;;;7.05;4.75;;;;;12.30;101924.00;;;;5092048;28;20218;-79
2021/04/19 06:19:06;;;;;;;8.40;4.57;;;;;12.40;101924.00;;;;5091822;28;20210;-78
2021/04/19 06:21:34;;;;;;;8.48;5.50;;;;;12.50;101919.00;;;;5092081;28;20552;-79
2021/04/19 06:24:03;;;;;;;7.53;4.57;;;;;12.50;101921.00;;;;5091535;28;20202;-78
2021/04/19 06:26:32;;;;;;;6.97;4.57;;;;;12.60;101917.00;;;;5091103;28;20645;-78
2021/04/19 06:28:59;;;;;;;7.15;4.65;;;;;12.60;101921.00;;;;5091235;28;20194;-78
2021/04/19 06:31:26;;;;;;;8.02;4.63;;;;;12.70;101916.00;;;;5091717;28;20206;-78
2021/04/19 06:34:07;;;;;;;7.82;4.70;;;;;12.70;101914.00;;;;5091235;28;20201;-78
2021/04/19 06:36:36;;;;;;;6.43;4.93;;;;;12.80;101913.00;;;;5091799;28;20229;-78
2021/04/19 06:39:04;;;;;;;7.30;4.32;;;;;12.90;101912.00;;;;5071115;28;20210;-78
2021/04/19 06:41:32;;;;;;;6.65;4.75;;;;;12.90;101922.00;;;;5071072;28;20199;-78
2021/04/19 06:44:00;;;;;;;8.50;5.28;;;;;13.00;101915.00;;;;5071310;28;20202;-78
2021/04/19 06:46:30;;;;;;;8.68;5.22;;;;;13.00;101918.00;;;;5080679;28;20206;-78
2021/04/19 06:48:57;;;;;;;5.20;4.03;;;;;13.10;101920.00;;;;5089800;28;20210;-78
2021/04/19 06:51:24;;;;;;;10.05;4.97;;;;;13.10;101917.00;;;;5089788;28;20742;-79
2021/04/19 06:53:52;;;;;;;7.13;4.97;;;;;13.20;101914.00;;;;5090974;28;20206;-79
2021/04/19 06:56:22;;;;;;;8.25;5.63;;;;;13.30;101903.00;;;;5091235;28;20218;-79
2021/04/19 06:58:52;;;;;;;8.57;5.20;;;;;13.40;101922.00;;;;5090829;28;20221;-79
2021/04/19 07:01:20;;;;;;;6.90;4.70;;;;;13.40;101917.00;;;;5089112;28;20205;-79
2021/04/19 07:03:51;;;;;;;8.30;5.05;;;;;13.50;101912.00;;;;5091291;28;20199;-79
2021/04/19 07:06:21;;;;;;;9.50;5.70;;;;;13.60;101913.00;;;;5092608;28;20221;-79
2021/04/19 07:08:49;;;;;;;9.05;6.50;;;;;13.80;101914.00;;;;5085726;28;20187;-81
2021/04/19 07:11:21;;;;;;;8.18;5.47;;;;;13.80;101914.00;;;;5083890;28;20209;-80
2021/04/19 07:13:50;;;;;;;8.68;5.60;;;;;13.90;101915.00;;;;5089857;28;20198;-80
2021/04/19 07:16:18;;;;;;;8.05;5.18;;;;;14.00;101912.00;;;;5090249;28;20606;-79
2021/04/19 07:18:44;;;;;;;7.97;5.63;;;;;14.10;101913.00;;;;5090305;28;20194;-80
2021/04/19 07:21:12;;;;;;;7.47;5.93;;;;;14.10;101915.00;;;;5088833;28;20202;-79
2021/04/19 07:23:39;;;;;;;7.70;5.63;;;;;14.20;101905.00;;;;5090246;28;20198;-79
2021/04/19 07:26:07;;;;;;;9.90;5.93;;;;;14.20;101915.00;;;;5089402;28;20297;-79
2021/04/19 07:28:37;;;;;;;9.40;6.22;;;;;14.30;101916.00;;;;5090543;28;20187;-79
2021/04/19 07:31:06;;;;;;;8.93;6.55;;;;;14.40;101921.00;;;;5090429;28;20205;-79
2021/04/19 07:33:35;;;;;;;14.57;7.38;;;;;14.50;101911.00;;;;5089819;28;20206;-79
2021/04/19 07:36:21;;;;;;;10.70;6.70;;;;;14.50;101930.00;;;;5090688;28;20226;-79
2021/04/19 07:38:49;;;;;;;9.73;6.35;;;;;14.60;101917.00;;;;5090286;28;20228;-80
2021/04/19 07:41:16;;;;;;;9.50;6.72;;;;;14.70;101920.00;;;;5088175;28;20206;-79
2021/04/19 07:43:44;;;;;;;8.13;6.22;;;;;14.80;101922.00;;;;5090925;28;20202;-79
2021/04/19 07:46:14;;;;;;;16.95;6.20;;;;;14.80;101918.00;;;;5087963;28;20198;-79
2021/04/19 07:48:45;;;;;;;10.23;6.10;;;;;14.90;101925.00;;;;5089912;28;20608;-79
2021/04/19 07:51:30;;;;;;;9.57;7.15;;;;;14.80;101914.00;;;;5088903;28;20393;-79
2021/04/19 07:54:16;;;;;;;8.23;6.43;;;;;14.90;101918.00;;;;5088001;28;21136;-78
2021/04/19 07:56:45;;;;;;;8.45;5.82;;;;;15.00;101915.00;;;;5090052;28;20635;-79
2021/04/19 07:59:23;;;;;;;9.15;6.28;;;;;15.10;101914.00;;;;5089237;28;20218;-79
2021/04/19 08:02:01;;;;;;;8.93;6.05;;;;;15.20;101921.00;;;;5089419;28;20194;-79
2021/04/19 08:04:28;;;;;;;9.73;6.15;;;;;15.40;101922.00;;;;5090051;28;20210;-79
2021/04/19 08:06:55;;;;;;;8.85;6.50;;;;;15.50;101927.00;;;;5090072;28;20244;-79
2021/04/19 08:09:26;;;;;;;11.07;7.80;;;;;15.50;101926.00;;;;5086319;28;20988;-79
2021/04/19 08:11:57;;;;;;;8.90;7.13;;;;;15.70;101919.00;;;;5082141;28;20248;-79
2021/04/19 08:14:30;;;;;;;8.77;6.30;;;;;15.80;101923.00;;;;5068662;28;20203;-80
2021/04/19 08:17:09;;;;;;;9.18;6.68;;;;;15.90;101927.00;;;;5087747;28;20226;-79
2021/04/19 08:19:38;;;;;;;11.55;6.75;;;;;16.10;101924.00;;;;5068138;28;20194;-78
2021/04/19 08:22:20;;;;;;;8.98;6.78;;;;;16.10;101925.00;;;;5076826;28;20206;-79
2021/04/19 08:24:48;;;;;;;9.60;6.60;;;;;16.20;101931.00;;;;5088613;28;20206;-78
2021/04/19 08:27:22;;;;;;;8.52;6.57;;;;;16.20;101928.00;;;;5087589;28;20203;-78
2021/04/19 08:29:49;;;;;;;10.77;7.28;;;;;16.40;101926.00;;;;5088549;28;20205;-79
2021/04/19 08:32:21;;;;;;;9.15;6.22;;;;;16.40;101923.00;;;;5085886;28;20206;-79
2021/04/19 08:34:49;;;;;;;9.68;6.68;;;;;16.50;101931.00;;;;5088357;28;20186;-79
2021/04/19 08:37:19;;;;;;;8.93;6.40;;;;;16.60;101930.00;;;;5085176;28;20232;-79
2021/04/19 08:39:45;;;;;;;8.15;6.50;;;;;16.60;101934.00;;;;5087671;28;20198;-79
2021/04/19 08:42:14;;;;;;;9.75;7.35;;;;;16.70;101932.00;;;;5080337;28;20193;-79
2021/04/19 08:44:42;;;;;;;7.35;5.53;;;;;16.70;101925.00;;;;5088075;28;20194;-78
2021/04/19 08:47:11;;;;;;;7.20;5.72;;;;;16.80;101928.00;;;;5087730;28;21069;-78
2021/04/19 08:49:39;;;;;;;8.30;6.07;;;;;17.00;101927.00;;;;5087741;28;20202;-79
2021/04/19 08:52:06;;;;;;;7.90;6.28;;;;;17.10;101929.00;;;;5088613;28;20206;-79
2021/04/19 08:54:34;;;;;;;8.32;5.85;;;;;17.20;101929.00;;;;5087253;28;20672;-80
2021/04/19 08:57:01;;;;;;;7.32;6.30;;;;;17.30;101926.00;;;;5088049;28;20222;-80
2021/04/19 08:59:27;;;;;;;7.10;5.82;;;;;17.40;101926.00;;;;5085380;28;20213;-79
2021/04/19 09:01:55;;;;;;;8.57;5.97;;;;;17.60;101929.00;;;;5089570;28;20200;-80
2021/04/19 09:04:23;;;;;;;13.07;6.90;;;;;17.70;101928.00;;;;5088255;28;20198;-79
2021/04/19 09:06:52;;;;;;;6.75;5.38;;;;;17.80;101926.00;;;;5085340;28;20194;-79
2021/04/19 09:09:35;;;;;;;7.20;5.78;;;;;17.80;101927.00;;;;5075980;28;20347;-80
2021/04/19 09:12:28;;;;;;;7.82;5.30;;;;;17.90;101926.00;;;;5086726;28;20579;-80
2021/04/19 09:15:20;;;;;;;8.38;5.63;;;;;18.00;101930.00;;;;5087767;28;20520;-80
2021/04/19 09:18:06;;;;;;;7.20;4.75;;;;;18.10;101928.00;;;;5088312;28;20312;-80
2021/04/19 09:20:47;;;;;;;7.50;5.30;;;;;18.30;101929.00;;;;5071656;28;20203;-80
2021/04/19 09:23:20;;;;;;;5.45;4.53;;;;;18.30;101931.00;;;;5070416;28;20195;-80
2021/04/19 09:25:47;;;;;;;6.03;4.78;;;;;18.40;101934.00;;;;5088015;28;20437;-80
2021/04/19 09:28:14;;;;;;;7.25;5.18;;;;;18.50;101940.00;;;;5087897;28;20613;-80
2021/04/19 09:30:45;;;;;;;6.93;4.80;;;;;18.50;101938.00;;;;5082759;28;20195;-80
2021/04/19 09:33:22;;;;;;;6.22;4.60;;;;;18.60;101935.00;;;;5087848;28;20260;-80
2021/04/19 09:35:52;;;;;;;5.43;4.28;;;;;18.70;101936.00;;;;5085212;28;20221;-80
2021/04/19 09:38:51;;;;;;;5.47;4.00;;;;;18.70;101943.00;;;;5071832;28;20203;-80
2021/04/19 09:41:20;;;;;;;5.07;3.65;;;;;18.80;101936.00;;;;5068834;28;20312;-80
2021/04/19 09:43:50;;;;;;;5.60;3.88;;;;;18.90;101942.00;;;;5085491;28;20206;-80
2021/04/19 09:46:31;;;;;;;6.13;3.85;;;;;18.90;101942.00;;;;5088264;28;20205;-80
2021/04/19 09:49:00;;;;;;;5.55;4.05;;;;;19.00;101937.00;;;;5087298;28;20296;-80
2021/04/19 09:51:33;;;;;;;5.30;4.25;;;;;19.10;101936.00;;;;5088319;28;20222;-80
2021/04/19 09:54:10;;;;;;;6.00;4.68;;;;;19.10;101935.00;;;;5080698;28;20203;-80
2021/04/19 09:56:40;;;;;;;5.47;4.60;;;;;19.20;101924.00;;;;5087714;28;20725;-80
2021/04/19 09:59:09;;;;;;;4.55;4.05;;;;;19.20;101931.00;;;;5087175;28;20637;-80
2021/04/19 10:01:37;;;;;;;5.47;4.15;;;;;19.20;101931.00;;;;5088111;28;20190;-80
2021/04/19 10:04:05;;;;;;;4.60;3.97;;;;;19.30;101917.00;;;;5087368;28;20194;-80
2021/04/19 10:06:38;;;;;;;5.00;4.50;;;;;19.30;101922.00;;;;5087032;28;20285;-80
2021/04/19 10:09:11;;;;;;;4.05;3.60;;;;;19.40;101928.00;;;;5087402;28;20285;-80
2021/04/19 10:11:42;;;;;;;4.05;3.65;;;;;19.50;101919.00;;;;5086314;28;20311;-80
2021/04/19 10:14:11;;;;;;;4.85;3.63;;;;;19.60;101925.00;;;;5087460;28;20191;-79
2021/04/19 10:16:46;;;;;;;4.22;3.33;;;;;19.70;101917.00;;;;5086852;28;20280;-79
2021/04/19 10:19:22;;;;;;;3.28;2.95;;;;;19.90;101922.00;;;;5086667;28;20198;-80
2021/04/19 10:21:58;;;;;;;3.72;2.97;;;;;20.00;101920.00;;;;5085659;28;20217;-80
2021/04/19 10:24:25;;;;;;;4.22;3.53;;;;;20.20;101920.00;;;;5087192;28;20661;-79
2021/04/19 10:26:52;;;;;;;3.25;2.95;;;;;20.30;101919.00;;;;5086741;28;20209;-80
2021/04/19 10:29:21;;;;;;;4.22;3.20;;;;;20.30;101919.00;;;;5087707;28;20256;-81
2021/04/19 10:31:54;;;;;;;2.30;2.08;;;;;20.40;101921.00;;;;5087157;28;20199;-80
2021/04/19 10:34:22;;;;;;;3.13;2.70;;;;;20.50;101919.00;;;;5086411;28;20202;-81
2021/04/19 10:36:54;;;;;;;5.10;2.80;;;;;20.70;101919.00;;;;5089990;28;20224;-79
2021/04/19 10:39:22;;;;;;;3.40;2.85;;;;;20.80;101921.00;;;;5085277;28;20305;-81
2021/04/19 10:41:51;;;;;;;3.47;3.15;;;;;20.80;101930.00;;;;5073396;28;20236;-80
2021/04/19 10:44:30;;;;;;;5.13;3.67;;;;;20.90;101918.00;;;;5078375;28;20608;-80
2021/04/19 10:46:57;;;;;;;3.83;3.30;;;;;20.90;101927.00;;;;5090755;28;20202;-80
2021/04/19 10:49:26;;;;;;;3.75;3.33;;;;;20.90;101926.00;;;;5091443;28;20195;-80
2021/04/19 10:51:54;;;;;;;4.20;3.30;;;;;20.80;101923.00;;;;5082605;28;20217;-81
2021/04/19 10:54:27;;;;;;;4.70;3.00;;;;;20.80;101918.00;;;;5091379;28;20285;-81
2021/04/19 10:56:55;;;;;;;4.13;3.55;;;;;20.80;101913.00;;;;5090353;28;20226;-81
2021/04/19 10:59:23;;;;;;;3.50;3.05;;;;;20.80;101914.00;;;;5089890;28;20215;-82
2021/04/19 11:01:57;;;;;;;3.47;3.17;;;;;20.80;101921.00;;;;5088487;28;20191;-81
2021/04/19 11:04:25;;;;;;;4.60;3.00;;;;;20.90;101906.00;;;;5088928;28;20246;-81
2021/04/19 11:06:52;;;;;;;3.25;2.95;;;;;20.90;101901.00;;;;5090581;28;20205;-80
2021/04/19 11:09:26;;;;;;;3.42;2.92;;;;;20.90;101904.00;;;;5085878;28;20195;-80
2021/04/19 11:11:54;;;;;;;5.05;2.95;;;;;21.00;101909.00;;;;5073365;28;20244;-80
2021/04/19 11:14:23;;;;;;;3.55;3.25;;;;;21.10;101904.00;;;;5070931;28;20285;-80
2021/04/19 11:16:51;;;;;;;4.45;3.30;;;;;21.20;101896.00;;;;5070338;28;20229;-80
2021/04/19 11:19:33;;;;;;;4.50;3.53;;;;;21.20;101904.00;;;;5087396;28;20210;-81
2021/04/19 11:22:00;;;;;;;2.97;2.58;;;;;21.40;101898.00;;;;5081119;28;20199;-81
2021/04/19 11:24:38;;;;;;;3.50;2.72;;;;;21.30;101894.00;;;;5077487;28;20203;-80
2021/04/19 11:27:08;;;;;;;2.83;2.47;;;;;21.40;101899.00;;;;5082463;28;20210;-79
2021/04/19 11:29:38;;;;;;;2.92;2.50;;;;;21.50;101897.00;;;;5076954;28;20194;-80
2021/04/19 11:32:07;;;;;;;3.05;2.33;;;;;21.50;101890.00;;;;5090534;28;20194;-82
2021/04/19 11:34:38;;;;;;;2.90;2.60;;;;;21.60;101884.00;;;;5088335;28;20194;-87
2021/04/19 11:37:06;;;;;;;2.72;2.25;;;;;21.80;101897.00;;;;5080694;28;20692;-84
2021/04/19 11:39:38;;;;;;;3.35;2.92;;;;;21.90;101896.00;;;;5089417;28;20203;-87
2021/04/19 11:42:26;;;;;;;3.58;2.53;;;;;22.00;101902.00;;;;5076429;28;20249;-88
2021/04/19 11:44:53;;;;;;;2.55;2.30;;;;;22.10;101897.00;;;;5078971;28;20202;-86
2021/04/19 11:47:20;;;;;;;2.97;2.67;;;;;22.10;101896.00;;;;5083534;28;20648;-84
2021/04/19 11:49:50;;;;;;;4.50;2.53;;;;;22.20;101891.00;;;;5073827;28;20206;-85
2021/04/19 11:52:17;;;;;;;3.38;2.80;;;;;22.30;101885.00;;;;5077083;28;20260;-86
2021/04/19 11:54:44;;;;;;;3.33;2.88;;;;;22.30;101891.00;;;;5077782;28;20199;-87
2021/04/19 11:57:12;;;;;;;4.38;3.30;;;;;22.40;101883.00;;;;5075476;28;20726;-88
2021/04/19 11:59:40;;;;;;;3.33;2.53;;;;;22.60;101887.00;;;;5078342;28;20213;-81
2021/04/19 12:02:07;;;;;;;4.35;3.25;;;;;22.70;101878.00;;;;5079429;28;20272;-79
2021/04/19 12:04:34;;;;;;;4.88;2.60;;;;;22.80;101881.00;;;;5089012;28;20199;-79
2021/04/19 12:07:02;;;;;;;2.72;2.53;;;;;22.90;101880.00;;;;5077762;28;20238;-79
2021/04/19 12:09:29;;;;;;;2.95;2.60;;;;;22.90;101876.00;;;;5082137;28;20206;-77
2021/04/19 12:11:56;;;;;;;3.13;2.80;;;;;22.90;101879.00;;;;5076247;28;20206;-77
2021/04/19 12:14:26;;;;;;;3.50;2.90;;;;;22.90;101869.00;;;;5070115;28;20210;-78
2021/04/19 12:16:54;;;;;;;3.92;2.95;;;;;22.80;101874.00;;;;5087420;28;20218;-78
2021/04/19 12:19:21;;;;;;;3.38;3.05;;;;;22.80;101870.00;;;;5085503;28;20206;-79
2021/04/19 12:21:48;;;;;;;3.33;2.90;;;;;22.80;101870.00;;;;5074181;28;20199;-78